Weston-Spr-Mare, United Kingdom
Current Conditions -  °F | °C
As of 7:50 AM on Thursday 27 Nov 2014 (Local Time) from EGGD Reporting Station
Moderate Fog Moderate Fog  
Wind Chill: 41°   Ceiling: Unl
Heat Index: 41°   Visibility: 2.5mi
Dew Point: 39°   Wind: 3mph
Humidity: 93%   Direction: 100°E
Pressure: 29.59"   Gusts: NA
Location:  51.33°N, 2.98°W
Report Text: EGGD 270750Z 10003KT 4000 VCFG FEW001 05/04 Q1002
Loading
Personal Weather Stations






























Interactive Weather Map New forecast layout! Learn more

10-Day Weather Forecast

Advertisements
Track Severe Weather on mobile